Time;durP1;ratioP1;P1;durP2;ratioP2;P2;SDS_P1;SDS_P2;PMS_P1;PMS_P2;Temp;Humidity;BMP_temperature;BMP_pressure;BME280_temperature;BME280_humidity;BME280_pressure;Samples;Min_cycle;Max_cycle;Signal;HPM_P1;HPM_P2
2023/06/20 00:02:18;;;;;;;12.00;11.00;;;;;;;;;;5284110;28;20027;-73
2023/06/20 00:04:49;;;;;;;14.20;11.87;;;;;;;;;;5282593;28;20289;-73
2023/06/20 00:07:20;;;;;;;13.40;12.00;;;;;;;;;;5283872;28;20271;-72
2023/06/20 00:09:52;;;;;;;11.03;9.90;;;;;;;;;;5283410;28;20345;-72
2023/06/20 00:12:23;;;;;;;13.30;12.00;;;;;;;;;;5283005;28;20321;-73
2023/06/20 00:14:55;;;;;;;11.75;10.55;;;;;;;;;;5283136;28;20027;-73
2023/06/20 00:17:26;;;;;;;14.95;11.40;;;;;;;;;;5283127;28;20017;-70
2023/06/20 00:19:58;;;;;;;12.70;11.03;;;;;;;;;;5282685;28;20464;-71
2023/06/20 00:22:29;;;;;;;11.77;10.57;;;;;;;;;;5283457;28;20383;-71
2023/06/20 00:25:03;;;;;;;11.45;10.25;;;;;;;;;;5282989;28;20028;-71
2023/06/20 00:27:35;;;;;;;11.45;9.82;;;;;;;;;;5283778;28;20044;-71
2023/06/20 00:30:07;;;;;;;11.68;10.68;;;;;;;;;;5283455;28;20063;-71
2023/06/20 00:32:38;;;;;;;12.07;10.88;;;;;;;;;;5282749;28;20024;-71
2023/06/20 00:35:10;;;;;;;11.82;10.43;;;;;;;;;;5282992;28;20031;-71
2023/06/20 00:37:41;;;;;;;11.20;10.18;;;;;;;;;;5282621;28;20104;-71
2023/06/20 00:40:12;;;;;;;15.52;10.68;;;;;;;;;;5282219;28;20035;-71
2023/06/20 00:42:45;;;;;;;11.85;10.75;;;;;;;;;;5282413;28;20044;-71
2023/06/20 00:45:22;;;;;;;11.95;10.07;;;;;;;;;;5283159;28;20519;-71
2023/06/20 00:47:53;;;;;;;11.18;10.15;;;;;;;;;;5281838;28;20028;-71
2023/06/20 00:50:27;;;;;;;11.57;9.85;;;;;;;;;;5283108;28;20490;-71
2023/06/20 00:52:59;;;;;;;12.98;10.50;;;;;;;;;;5282318;28;20040;-72
2023/06/20 00:55:34;;;;;;;12.20;11.15;;;;;;;;;;5282910;28;20021;-71
2023/06/20 00:58:05;;;;;;;12.50;11.30;;;;;;;;;;5281881;28;20032;-72
2023/06/20 01:00:38;;;;;;;11.82;10.68;;;;;;;;;;5281616;28;20468;-72
2023/06/20 01:03:11;;;;;;;11.82;10.65;;;;;;;;;;5282606;28;20391;-72
2023/06/20 01:05:48;;;;;;;12.50;10.75;;;;;;;;;;5281908;28;20484;-72
2023/06/20 01:08:22;;;;;;;11.45;10.30;;;;;;;;;;5281995;28;20090;-72
2023/06/20 01:11:00;;;;;;;11.75;10.65;;;;;;;;;;5281815;28;20102;-72
2023/06/20 01:13:38;;;;;;;11.30;10.30;;;;;;;;;;5282268;28;20021;-72
2023/06/20 01:16:27;;;;;;;15.40;10.38;;;;;;;;;;5281264;28;20026;-72
2023/06/20 01:19:17;;;;;;;14.35;11.20;;;;;;;;;;5282472;28;20024;-72
2023/06/20 01:21:58;;;;;;;12.02;10.80;;;;;;;;;;5281130;28;20051;-72
2023/06/20 01:24:33;;;;;;;15.25;11.38;;;;;;;;;;5282145;28;20612;-72
2023/06/20 01:27:04;;;;;;;10.75;9.82;;;;;;;;;;5282289;28;20020;-72
2023/06/20 01:29:43;;;;;;;11.50;10.00;;;;;;;;;;5281352;28;20021;-72
2023/06/20 01:32:17;;;;;;;11.50;10.35;;;;;;;;;;5282322;28;20808;-72
2023/06/20 01:34:50;;;;;;;11.40;10.13;;;;;;;;;;5281774;28;20024;-72
2023/06/20 01:37:23;;;;;;;12.00;10.68;;;;;;;;;;5282044;28;20031;-72
2023/06/20 01:39:56;;;;;;;11.80;10.60;;;;;;;;;;5281920;28;20032;-72
2023/06/20 01:42:29;;;;;;;12.85;11.60;;;;;;;;;;5281034;28;20028;-72
2023/06/20 01:45:02;;;;;;;13.32;12.13;;;;;;;;;;5281726;28;20054;-72
2023/06/20 01:47:36;;;;;;;12.73;10.95;;;;;;;;;;5282264;28;20364;-72
2023/06/20 01:50:07;;;;;;;12.20;10.80;;;;;;;;;;5281345;28;20158;-72
2023/06/20 01:52:39;;;;;;;12.52;11.38;;;;;;;;;;5282371;28;20107;-72
2023/06/20 01:55:11;;;;;;;12.38;11.18;;;;;;;;;;5282240;28;20020;-71
2023/06/20 01:57:42;;;;;;;11.98;10.88;;;;;;;;;;5280696;28;20057;-71
2023/06/20 02:00:15;;;;;;;11.23;10.23;;;;;;;;;;5282401;28;20471;-72
2023/06/20 02:02:46;;;;;;;11.48;10.48;;;;;;;;;;5281056;28;20082;-71
2023/06/20 02:05:19;;;;;;;12.90;11.48;;;;;;;;;;5281081;28;20530;-72
2023/06/20 02:07:52;;;;;;;11.45;10.35;;;;;;;;;;5281151;28;20047;-71
2023/06/20 02:10:24;;;;;;;13.68;11.18;;;;;;;;;;5280420;28;20113;-72
2023/06/20 02:12:55;;;;;;;12.10;10.80;;;;;;;;;;5281411;28;20028;-71
2023/06/20 02:15:28;;;;;;;11.32;10.20;;;;;;;;;;5281348;28;20009;-71
2023/06/20 02:18:02;;;;;;;12.88;10.50;;;;;;;;;;5280315;28;20038;-73
2023/06/20 02:20:34;;;;;;;12.48;11.25;;;;;;;;;;5281253;28;20376;-73
2023/06/20 02:23:07;;;;;;;12.15;10.98;;;;;;;;;;5281380;28;20016;-72
2023/06/20 02:25:40;;;;;;;13.73;12.38;;;;;;;;;;5280367;28;20020;-72
2023/06/20 02:28:13;;;;;;;12.48;11.40;;;;;;;;;;5281257;28;20062;-72
2023/06/20 02:30:45;;;;;;;13.35;11.90;;;;;;;;;;5280756;28;20031;-72
2023/06/20 02:33:18;;;;;;;13.80;11.48;;;;;;;;;;5281149;28;20020;-72
2023/06/20 02:35:50;;;;;;;12.38;11.20;;;;;;;;;;5280734;28;20027;-72
2023/06/20 02:38:21;;;;;;;13.02;10.68;;;;;;;;;;5280566;28;20021;-72
2023/06/20 02:40:52;;;;;;;12.63;11.52;;;;;;;;;;5280611;28;20009;-72
2023/06/20 02:43:23;;;;;;;12.10;10.93;;;;;;;;;;5280929;28;20029;-72
2023/06/20 02:46:00;;;;;;;11.40;10.27;;;;;;;;;;5280330;28;20614;-72
2023/06/20 02:48:37;;;;;;;11.93;10.75;;;;;;;;;;5281192;28;20279;-72
2023/06/20 02:51:16;;;;;;;11.38;10.02;;;;;;;;;;5280862;28;20041;-72
2023/06/20 02:54:05;;;;;;;11.98;10.65;;;;;;;;;;5279633;28;20021;-72
2023/06/20 02:56:37;;;;;;;15.15;10.52;;;;;;;;;;5281120;28;20017;-72
2023/06/20 02:59:10;;;;;;;10.68;9.57;;;;;;;;;;5280959;28;20032;-72
2023/06/20 03:01:44;;;;;;;13.93;10.45;;;;;;;;;;5279957;28;20027;-71
2023/06/20 03:04:17;;;;;;;11.07;9.70;;;;;;;;;;5281252;28;20028;-71
2023/06/20 03:06:51;;;;;;;10.43;9.20;;;;;;;;;;5279920;28;20366;-72
2023/06/20 03:09:22;;;;;;;10.73;9.73;;;;;;;;;;5281421;28;20025;-71
2023/06/20 03:11:54;;;;;;;11.52;10.32;;;;;;;;;;5280733;28;20013;-71
2023/06/20 03:14:25;;;;;;;10.80;9.80;;;;;;;;;;5279917;28;20089;-71
2023/06/20 03:16:56;;;;;;;10.48;8.95;;;;;;;;;;5280622;28;20039;-72
2023/06/20 03:19:28;;;;;;;10.13;9.25;;;;;;;;;;5280773;28;20119;-72
2023/06/20 03:21:59;;;;;;;10.77;9.70;;;;;;;;;;5281020;28;20047;-72
2023/06/20 03:24:30;;;;;;;11.17;10.07;;;;;;;;;;5284712;28;20349;-71
2023/06/20 03:27:01;;;;;;;10.30;9.20;;;;;;;;;;5284632;28;20625;-71
2023/06/20 03:29:32;;;;;;;10.30;8.97;;;;;;;;;;5283836;28;20071;-72
2023/06/20 03:32:04;;;;;;;11.40;10.23;;;;;;;;;;5284107;28;20267;-72
2023/06/20 03:34:35;;;;;;;10.55;9.55;;;;;;;;;;5283659;28;20412;-72
2023/06/20 03:37:06;;;;;;;11.07;9.50;;;;;;;;;;5284265;28;20044;-72
2023/06/20 03:39:37;;;;;;;10.10;9.18;;;;;;;;;;5283874;28;20740;-72
2023/06/20 03:42:09;;;;;;;10.70;9.20;;;;;;;;;;5283211;28;20506;-72
2023/06/20 03:44:40;;;;;;;9.90;9.00;;;;;;;;;;5283892;28;20490;-72
2023/06/20 03:47:11;;;;;;;9.15;8.35;;;;;;;;;;5284397;28;20103;-72
2023/06/20 03:49:42;;;;;;;12.13;9.60;;;;;;;;;;5282994;28;20032;-72
2023/06/20 03:52:13;;;;;;;9.98;9.02;;;;;;;;;;5284002;28;20291;-72
2023/06/20 03:54:45;;;;;;;9.88;9.02;;;;;;;;;;5283744;28;20047;-72
2023/06/20 03:57:16;;;;;;;9.60;8.70;;;;;;;;;;5283271;28;20021;-72
2023/06/20 03:59:47;;;;;;;10.33;9.43;;;;;;;;;;5283311;28;20082;-72
2023/06/20 04:02:18;;;;;;;13.85;9.70;;;;;;;;;;5283845;28;20282;-72
2023/06/20 04:04:49;;;;;;;10.60;9.43;;;;;;;;;;5282404;28;20023;-73
2023/06/20 04:07:21;;;;;;;10.68;9.68;;;;;;;;;;5283951;28;20123;-72
2023/06/20 04:09:52;;;;;;;11.48;10.23;;;;;;;;;;5282149;28;20021;-72
2023/06/20 04:12:23;;;;;;;10.70;9.47;;;;;;;;;;5283440;28;20459;-73
2023/06/20 04:14:54;;;;;;;10.73;9.60;;;;;;;;;;5283208;28;20637;-72
2023/06/20 04:17:26;;;;;;;11.00;9.73;;;;;;;;;;5282425;28;20273;-72
2023/06/20 04:19:59;;;;;;;10.52;9.55;;;;;;;;;;5283180;28;20128;-72
2023/06/20 04:22:30;;;;;;;10.52;9.52;;;;;;;;;;5283351;28;20103;-72
2023/06/20 04:25:01;;;;;;;11.20;10.02;;;;;;;;;;5282653;28;20103;-72
2023/06/20 04:27:32;;;;;;;10.70;9.68;;;;;;;;;;5283636;28;20016;-72
2023/06/20 04:30:05;;;;;;;10.43;9.45;;;;;;;;;;5283655;28;20025;-72
2023/06/20 04:32:41;;;;;;;10.82;9.75;;;;;;;;;;5281835;28;20026;-72
2023/06/20 04:35:12;;;;;;;12.45;11.02;;;;;;;;;;5282978;28;20384;-72
2023/06/20 04:37:43;;;;;;;11.38;10.27;;;;;;;;;;5281864;28;20020;-73
2023/06/20 04:40:14;;;;;;;11.27;10.25;;;;;;;;;;5282972;28;20387;-72
2023/06/20 04:42:46;;;;;;;11.05;10.00;;;;;;;;;;5282496;28;20016;-72
2023/06/20 04:45:17;;;;;;;11.30;10.18;;;;;;;;;;5281883;28;20024;-72
2023/06/20 04:47:50;;;;;;;10.77;9.67;;;;;;;;;;5282524;28;20414;-72
2023/06/20 04:50:22;;;;;;;11.43;10.32;;;;;;;;;;5282618;28;20293;-72
2023/06/20 04:52:53;;;;;;;10.07;9.05;;;;;;;;;;5281571;28;20055;-73
2023/06/20 04:55:24;;;;;;;10.88;9.95;;;;;;;;;;5282562;28;20016;-72
2023/06/20 04:57:56;;;;;;;13.23;10.30;;;;;;;;;;5282400;28;20032;-72
2023/06/20 05:00:27;;;;;;;10.57;9.68;;;;;;;;;;5281640;28;20502;-73
2023/06/20 05:02:59;;;;;;;12.00;10.07;;;;;;;;;;5282538;28;20582;-72
2023/06/20 05:05:30;;;;;;;11.87;9.90;;;;;;;;;;5282494;28;20279;-72
2023/06/20 05:08:01;;;;;;;11.63;9.07;;;;;;;;;;5281318;28;20020;-72
2023/06/20 05:10:32;;;;;;;10.93;9.20;;;;;;;;;;5281947;28;20349;-72
2023/06/20 05:13:03;;;;;;;11.80;8.20;;;;;;;;;;5281236;28;20576;-72
2023/06/20 05:15:34;;;;;;;7.27;6.57;;;;;;;;;;5282040;28;20306;-73
2023/06/20 05:18:06;;;;;;;7.90;7.13;;;;;;;;;;5282129;28;20090;-74
2023/06/20 05:20:37;;;;;;;7.35;6.28;;;;;;;;;;5281384;28;20016;-73
2023/06/20 05:23:08;;;;;;;6.20;5.60;;;;;;;;;;5281812;28;20091;-73
2023/06/20 05:25:39;;;;;;;5.47;4.90;;;;;;;;;;5281602;28;20270;-73
2023/06/20 05:28:10;;;;;;;5.73;5.10;;;;;;;;;;5281100;28;20285;-73
2023/06/20 05:30:42;;;;;;;7.13;4.85;;;;;;;;;;5281563;28;20267;-73
2023/06/20 05:33:13;;;;;;;6.20;4.10;;;;;;;;;;5282605;28;20020;-73
2023/06/20 05:35:46;;;;;;;6.88;5.63;;;;;;;;;;5281247;28;20024;-74
2023/06/20 05:38:17;;;;;;;6.32;4.38;;;;;;;;;;5281988;28;20490;-73
2023/06/20 05:40:48;;;;;;;3.53;3.23;;;;;;;;;;5281718;28;20020;-73
2023/06/20 05:43:19;;;;;;;3.35;2.90;;;;;;;;;;5281454;28;20024;-72
2023/06/20 05:45:50;;;;;;;2.53;2.33;;;;;;;;;;5280797;28;20036;-72
2023/06/20 05:48:23;;;;;;;3.40;2.40;;;;;;;;;;5281073;28;20270;-72
2023/06/20 05:50:55;;;;;;;4.53;2.20;;;;;;;;;;5281054;28;20298;-72
2023/06/20 05:53:26;;;;;;;4.72;2.10;;;;;;;;;;5281352;28;20112;-72
2023/06/20 05:55:58;;;;;;;2.70;2.28;;;;;;;;;;5280671;28;20024;-73
2023/06/20 05:58:29;;;;;;;3.58;2.60;;;;;;;;;;5281390;28;20111;-73
2023/06/20 06:01:01;;;;;;;4.25;2.60;;;;;;;;;;5281464;28;20017;-72
2023/06/20 06:03:32;;;;;;;4.05;2.60;;;;;;;;;;5281066;28;20100;-72
2023/06/20 06:06:04;;;;;;;3.17;2.60;;;;;;;;;;5281590;28;20107;-72
2023/06/20 06:08:35;;;;;;;4.15;2.00;;;;;;;;;;5281581;28;20269;-73
2023/06/20 06:11:07;;;;;;;3.33;2.20;;;;;;;;;;5280576;28;20066;-72
2023/06/20 06:13:39;;;;;;;3.10;2.15;;;;;;;;;;5281481;28;20028;-73
2023/06/20 06:16:10;;;;;;;4.65;2.00;;;;;;;;;;5281393;28;20033;-72
2023/06/20 06:18:41;;;;;;;2.30;2.00;;;;;;;;;;5281473;28;20036;-73
2023/06/20 06:21:13;;;;;;;3.03;1.97;;;;;;;;;;5281889;28;20251;-72
2023/06/20 06:23:44;;;;;;;2.30;1.88;;;;;;;;;;5280349;28;20541;-73
2023/06/20 06:26:16;;;;;;;4.70;2.60;;;;;;;;;;5281400;28;20013;-74
2023/06/20 06:28:47;;;;;;;3.33;3.00;;;;;;;;;;5281272;28;20426;-72
2023/06/20 06:31:24;;;;;;;4.07;2.50;;;;;;;;;;5280673;28;20020;-73
2023/06/20 06:33:59;;;;;;;6.57;2.85;;;;;;;;;;5281369;28;20266;-72
2023/06/20 06:36:31;;;;;;;3.50;2.15;;;;;;;;;;5281236;28;20024;-72
2023/06/20 06:39:02;;;;;;;3.47;3.05;;;;;;;;;;5280245;28;20029;-73
2023/06/20 06:41:34;;;;;;;4.05;2.85;;;;;;;;;;5281207;28;20099;-73
2023/06/20 06:44:05;;;;;;;3.10;2.87;;;;;;;;;;5281193;28;20043;-73
2023/06/20 06:46:36;;;;;;;4.80;3.00;;;;;;;;;;5280263;28;20271;-74
2023/06/20 06:49:08;;;;;;;5.53;3.00;;;;;;;;;;5281190;28;20307;-74
2023/06/20 06:51:39;;;;;;;3.78;2.47;;;;;;;;;;5279733;28;20677;-72
2023/06/20 06:54:10;;;;;;;3.13;2.83;;;;;;;;;;5281296;28;20031;-73
2023/06/20 06:56:41;;;;;;;3.80;3.43;;;;;;;;;;5281379;28;20012;-72
2023/06/20 06:59:13;;;;;;;4.20;3.30;;;;;;;;;;5273049;28;20070;-72
2023/06/20 07:01:44;;;;;;;3.77;3.20;;;;;;;;;;5283141;28;20767;-73
2023/06/20 07:04:16;;;;;;;5.20;3.40;;;;;;;;;;5285193;28;20347;-74
2023/06/20 07:06:47;;;;;;;4.43;3.30;;;;;;;;;;5283589;28;20080;-74
2023/06/20 07:09:18;;;;;;;4.30;3.60;;;;;;;;;;5283966;28;20051;-74
2023/06/20 07:11:49;;;;;;;4.50;3.30;;;;;;;;;;5282856;28;20032;-73
2023/06/20 07:14:20;;;;;;;5.20;3.15;;;;;;;;;;5284239;28;20741;-76
2023/06/20 07:16:52;;;;;;;4.00;3.50;;;;;;;;;;5284263;28;20016;-74
2023/06/20 07:19:23;;;;;;;4.00;3.60;;;;;;;;;;5284692;28;20041;-75
2023/06/20 07:21:54;;;;;;;3.97;3.65;;;;;;;;;;5283651;28;20410;-75
2023/06/20 07:24:26;;;;;;;5.37;4.20;;;;;;;;;;5284188;28;20387;-75
2023/06/20 07:26:57;;;;;;;6.57;2.83;;;;;;;;;;5283329;28;20266;-75
2023/06/20 07:29:28;;;;;;;4.80;4.40;;;;;;;;;;5284745;28;20328;-75
2023/06/20 07:31:59;;;;;;;3.83;3.50;;;;;;;;;;5284167;28;20104;-75
2023/06/20 07:34:30;;;;;;;3.57;3.27;;;;;;;;;;5283974;28;20439;-75
2023/06/20 07:37:01;;;;;;;6.33;3.80;;;;;;;;;;5284402;28;20278;-76
2023/06/20 07:39:33;;;;;;;3.00;2.80;;;;;;;;;;5284435;28;20298;-76
2023/06/20 07:42:04;;;;;;;3.67;2.97;;;;;;;;;;5283619;28;20259;-75
2023/06/20 07:44:35;;;;;;;3.90;2.58;;;;;;;;;;5284026;28;20628;-75
2023/06/20 07:47:06;;;;;;;4.20;2.73;;;;;;;;;;5283983;28;20012;-75
2023/06/20 07:49:38;;;;;;;4.10;2.50;;;;;;;;;;5283180;28;20459;-75
2023/06/20 07:52:09;;;;;;;5.87;2.97;;;;;;;;;;5283690;28;20065;-75
2023/06/20 07:54:40;;;;;;;4.60;2.47;;;;;;;;;;5283256;28;20028;-75
2023/06/20 07:57:11;;;;;;;2.47;2.27;;;;;;;;;;5284184;28;20024;-77
2023/06/20 07:59:42;;;;;;;2.78;2.45;;;;;;;;;;5283405;28;20295;-77
2023/06/20 08:02:14;;;;;;;4.80;2.85;;;;;;;;;;5283382;28;20133;-77
2023/06/20 08:04:45;;;;;;;5.43;2.93;;;;;;;;;;5283412;28;20021;-76
2023/06/20 08:07:16;;;;;;;4.57;3.47;;;;;;;;;;5283795;28;20585;-76
2023/06/20 08:09:47;;;;;;;3.93;3.27;;;;;;;;;;5282753;28;20417;-77
2023/06/20 08:12:18;;;;;;;4.10;3.60;;;;;;;;;;5283246;28;20255;-77
2023/06/20 08:14:52;;;;;;;4.03;3.10;;;;;;;;;;5283288;28;20052;-78
2023/06/20 08:17:23;;;;;;;3.92;3.13;;;;;;;;;;5282742;28;20278;-79
2023/06/20 08:19:58;;;;;;;3.97;2.60;;;;;;;;;;5283365;28;20041;-78
2023/06/20 08:22:29;;;;;;;2.63;2.20;;;;;;;;;;5273569;28;20272;-78
2023/06/20 08:25:00;;;;;;;2.50;1.90;;;;;;;;;;5260414;28;20561;-77
2023/06/20 08:27:31;;;;;;;4.30;1.90;;;;;;;;;;5283145;28;20263;-76
2023/06/20 08:30:03;;;;;;;2.40;2.00;;;;;;;;;;5282229;28;20021;-77
2023/06/20 08:32:36;;;;;;;2.75;1.42;;;;;;;;;;5283429;28;20021;-76
2023/06/20 08:35:09;;;;;;;4.47;2.10;;;;;;;;;;5282862;28;20020;-76
2023/06/20 08:37:41;;;;;;;3.95;1.88;;;;;;;;;;5281583;28;20016;-77
2023/06/20 08:40:14;;;;;;;3.97;2.50;;;;;;;;;;5283381;28;20032;-77
2023/06/20 08:42:45;;;;;;;3.17;1.58;;;;;;;;;;5282324;28;20020;-77
2023/06/20 08:45:19;;;;;;;2.20;2.00;;;;;;;;;;5282298;28;20077;-77
2023/06/20 08:47:50;;;;;;;2.33;1.40;;;;;;;;;;5282795;28;20309;-77
2023/06/20 08:50:21;;;;;;;3.27;1.10;;;;;;;;;;5281008;28;20437;-79
2023/06/20 08:52:55;;;;;;;2.07;1.37;;;;;;;;;;5280003;28;20016;-77
2023/06/20 08:55:28;;;;;;;2.15;1.23;;;;;;;;;;5282634;28;20095;-77
2023/06/20 08:57:59;;;;;;;3.03;1.45;;;;;;;;;;5281952;28;20055;-76
2023/06/20 09:00:30;;;;;;;2.80;1.20;;;;;;;;;;5282633;28;20028;-75
2023/06/20 09:03:01;;;;;;;2.30;1.63;;;;;;;;;;5282777;28;20254;-76
2023/06/20 09:05:42;;;;;;;2.70;1.33;;;;;;;;;;5281609;28;20033;-77
2023/06/20 09:08:14;;;;;;;1.95;1.08;;;;;;;;;;5282654;28;20050;-77
2023/06/20 09:10:45;;;;;;;3.72;1.00;;;;;;;;;;5281868;28;20078;-77
2023/06/20 09:13:17;;;;;;;2.70;0.90;;;;;;;;;;5282122;28;20024;-78
2023/06/20 09:15:48;;;;;;;2.03;1.00;;;;;;;;;;5282206;28;20028;-78
2023/06/20 09:18:19;;;;;;;5.77;0.90;;;;;;;;;;5281692;28;20037;-79
2023/06/20 09:20:57;;;;;;;2.03;0.77;;;;;;;;;;5278871;28;20036;-77
2023/06/20 09:23:29;;;;;;;1.35;0.93;;;;;;;;;;5280472;28;20016;-77
2023/06/20 09:26:14;;;;;;;1.70;0.82;;;;;;;;;;5277046;28;20157;-76
2023/06/20 09:28:45;;;;;;;1.50;0.82;;;;;;;;;;5279746;28;20020;-78
2023/06/20 09:31:17;;;;;;;3.73;0.80;;;;;;;;;;5280226;28;20104;-80
2023/06/20 09:33:49;;;;;;;1.50;0.87;;;;;;;;;;5279589;28;20467;-77
2023/06/20 09:36:21;;;;;;;2.20;0.80;;;;;;;;;;5280338;28;20056;-76
2023/06/20 09:38:52;;;;;;;3.35;0.90;;;;;;;;;;5278337;28;20024;-77
2023/06/20 09:41:23;;;;;;;2.10;0.90;;;;;;;;;;5277388;28;20482;-77
2023/06/20 09:43:54;;;;;;;2.90;1.00;;;;;;;;;;5278827;28;20028;-77
2023/06/20 09:46:26;;;;;;;1.67;0.83;;;;;;;;;;5280693;28;20028;-77
2023/06/20 09:48:57;;;;;;;1.05;0.70;;;;;;;;;;5280682;28;20032;-78
2023/06/20 09:51:28;;;;;;;1.00;0.60;;;;;;;;;;5281583;28;20403;-79
2023/06/20 09:54:08;;;;;;;3.08;0.80;;;;;;;;;;5281583;28;20028;-80
2023/06/20 09:56:45;;;;;;;3.92;0.90;;;;;;;;;;5280946;28;20020;-80
2023/06/20 09:59:16;;;;;;;4.55;0.75;;;;;;;;;;5281976;28;20038;-78
2023/06/20 10:01:48;;;;;;;1.90;0.67;;;;;;;;;;5280931;28;20383;-79
2023/06/20 10:04:20;;;;;;;1.75;0.57;;;;;;;;;;5282069;28;20032;-78
2023/06/20 10:06:51;;;;;;;2.53;0.60;;;;;;;;;;5281315;28;20024;-79
2023/06/20 10:09:23;;;;;;;1.17;0.70;;;;;;;;;;5281015;28;20483;-80
2023/06/20 10:11:55;;;;;;;1.83;0.60;;;;;;;;;;5281309;28;20021;-73
2023/06/20 10:14:26;;;;;;;3.23;0.60;;;;;;;;;;5281745;28;20379;-76
2023/06/20 10:17:04;;;;;;;1.48;0.60;;;;;;;;;;5281084;28;20023;-75
2023/06/20 10:19:48;;;;;;;2.17;0.60;;;;;;;;;;5281444;28;20056;-77
2023/06/20 10:22:37;;;;;;;1.42;0.60;;;;;;;;;;5280915;28;20422;-79
2023/06/20 10:25:12;;;;;;;2.40;0.50;;;;;;;;;;5280743;28;20063;-78
2023/06/20 10:27:44;;;;;;;1.40;0.50;;;;;;;;;;5280497;28;20150;-79
2023/06/20 10:30:15;;;;;;;3.00;0.60;;;;;;;;;;5279836;28;20347;-79
2023/06/20 10:33:05;;;;;;;2.47;0.60;;;;;;;;;;5283467;28;20021;-79
2023/06/20 10:35:56;;;;;;;1.38;0.40;;;;;;;;;;5283725;28;20028;-78
2023/06/20 10:38:28;;;;;;;1.95;0.43;;;;;;;;;;5282639;28;20035;-79
2023/06/20 10:41:06;;;;;;;0.95;0.50;;;;;;;;;;5283468;28;20336;-78
2023/06/20 10:43:37;;;;;;;;;;;;;;;;;;5283664;28;20023;-79
2023/06/20 10:46:08;;;;;;;2.33;0.50;;;;;;;;;;5284670;28;19916;-78
2023/06/20 10:48:39;;;;;;;1.70;0.40;;;;;;;;;;5284905;28;20017;-79
2023/06/20 10:51:10;;;;;;;1.05;0.40;;;;;;;;;;5284568;28;20098;-78
2023/06/20 10:53:42;;;;;;;0.95;0.50;;;;;;;;;;5285038;28;20012;-80
2023/06/20 10:56:23;;;;;;;2.03;0.40;;;;;;;;;;5285762;28;20028;-80
2023/06/20 10:58:54;;;;;;;0.80;0.50;;;;;;;;;;5284448;28;20348;-81
2023/06/20 11:01:26;;;;;;;1.87;0.40;;;;;;;;;;5284991;28;20039;-81
2023/06/20 11:03:58;;;;;;;1.63;0.50;;;;;;;;;;5284236;28;20312;-80
2023/06/20 11:06:30;;;;;;;1.20;0.50;;;;;;;;;;5284774;28;20387;-80
2023/06/20 11:09:01;;;;;;;2.38;0.50;;;;;;;;;;5285027;28;20028;-81
2023/06/20 11:11:39;;;;;;;0.85;0.47;;;;;;;;;;5285194;28;20363;-82
2023/06/20 11:14:10;;;;;;;2.72;0.63;;;;;;;;;;5285276;28;20474;-80
2023/06/20 11:16:42;;;;;;;0.80;0.40;;;;;;;;;;5284815;28;20082;-80
2023/06/20 11:19:14;;;;;;;1.63;0.68;;;;;;;;;;5284546;28;20040;-80
2023/06/20 11:21:45;;;;;;;2.97;0.50;;;;;;;;;;5284939;28;20021;-81
2023/06/20 11:24:19;;;;;;;1.03;0.43;;;;;;;;;;5284798;28;20025;-80
2023/06/20 11:26:50;;;;;;;2.08;0.52;;;;;;;;;;5282099;28;20052;-81
2023/06/20 11:29:23;;;;;;;1.67;0.60;;;;;;;;;;5285157;28;20427;-81
2023/06/20 11:32:06;;;;;;;1.00;0.50;;;;;;;;;;5284744;28;20016;-80
2023/06/20 11:34:53;;;;;;;2.15;0.40;;;;;;;;;;5283839;28;20162;-81
2023/06/20 11:37:25;;;;;;;2.05;0.50;;;;;;;;;;5285008;28;20485;-81
2023/06/20 11:39:56;;;;;;;1.15;0.50;;;;;;;;;;5284024;28;20028;-81
2023/06/20 11:42:34;;;;;;;2.67;0.60;;;;;;;;;;5284118;28;20020;-81
2023/06/20 11:45:10;;;;;;;2.58;0.50;;;;;;;;;;5284575;28;20275;-81
2023/06/20 11:47:42;;;;;;;0.65;0.40;;;;;;;;;;5283405;28;20021;-81
2023/06/20 11:50:23;;;;;;;1.52;0.40;;;;;;;;;;5284820;28;20055;-81
2023/06/20 11:52:55;;;;;;;2.03;0.52;;;;;;;;;;5283946;28;20081;-81
2023/06/20 11:55:46;;;;;;;1.00;0.50;;;;;;;;;;5283621;28;20055;-81
2023/06/20 11:58:17;;;;;;;0.95;0.40;;;;;;;;;;5282115;28;20116;-81
2023/06/20 12:01:08;;;;;;;1.65;0.40;;;;;;;;;;5283359;28;20099;-80
2023/06/20 12:03:44;;;;;;;1.23;0.50;;;;;;;;;;5283836;28;20025;-81
2023/06/20 12:06:23;;;;;;;0.70;0.40;;;;;;;;;;5284181;28;20012;-80
2023/06/20 12:08:58;;;;;;;2.45;0.50;;;;;;;;;;5283090;28;20086;-76
2023/06/20 12:11:30;;;;;;;2.75;0.50;;;;;;;;;;5275626;28;20048;-79
2023/06/20 12:14:02;;;;;;;1.38;0.60;;;;;;;;;;5282082;28;20499;-81
2023/06/20 12:16:33;;;;;;;1.88;0.52;;;;;;;;;;5281563;28;20013;-81
2023/06/20 12:19:04;;;;;;;1.87;0.50;;;;;;;;;;5282773;28;20359;-80
2023/06/20 12:21:38;;;;;;;1.73;0.47;;;;;;;;;;5282743;28;20048;-81
2023/06/20 12:24:10;;;;;;;1.45;0.50;;;;;;;;;;5302610;28;20528;-77
2023/06/20 12:26:42;;;;;;;2.65;0.60;;;;;;;;;;5301991;28;20031;-78
2023/06/20 12:29:13;;;;;;;1.30;0.40;;;;;;;;;;5260896;28;20053;-74
2023/06/20 12:31:44;;;;;;;2.20;0.57;;;;;;;;;;5265725;28;20099;-77
2023/06/20 12:34:15;;;;;;;2.03;0.50;;;;;;;;;;5281632;28;20978;-78
2023/06/20 12:36:46;;;;;;;1.02;0.60;;;;;;;;;;5292846;28;20488;-78
2023/06/20 12:39:18;;;;;;;2.37;0.50;;;;;;;;;;5298980;28;20059;-79
2023/06/20 12:41:49;;;;;;;2.72;0.60;;;;;;;;;;5299461;28;20269;-77
2023/06/20 12:44:20;;;;;;;0.90;0.50;;;;;;;;;;5296764;28;20518;-77
2023/06/20 12:46:51;;;;;;;0.87;0.50;;;;;;;;;;5300101;28;20407;-77
2023/06/20 12:49:23;;;;;;;1.02;0.55;;;;;;;;;;5281275;28;20455;-79
2023/06/20 12:51:54;;;;;;;2.20;0.50;;;;;;;;;;5279319;28;20399;-78
2023/06/20 12:54:25;;;;;;;0.80;0.50;;;;;;;;;;5279104;28;20044;-79
2023/06/20 12:56:56;;;;;;;1.60;0.60;;;;;;;;;;5279026;28;20089;-78
2023/06/20 12:59:27;;;;;;;0.93;0.50;;;;;;;;;;5258758;28;20047;-77
2023/06/20 13:01:59;;;;;;;1.98;0.50;;;;;;;;;;5259334;28;20110;-79
2023/06/20 13:04:30;;;;;;;2.40;0.63;;;;;;;;;;5277701;28;20021;-78
2023/06/20 13:07:01;;;;;;;2.50;0.60;;;;;;;;;;5279305;28;20159;-76
2023/06/20 13:09:32;;;;;;;2.37;0.60;;;;;;;;;;5280350;28;20027;-78
2023/06/20 13:12:03;;;;;;;2.97;0.60;;;;;;;;;;5281889;28;20100;-76
2023/06/20 13:14:35;;;;;;;1.77;0.50;;;;;;;;;;5282294;28;20036;-76
2023/06/20 13:17:06;;;;;;;2.17;0.70;;;;;;;;;;5282669;28;20041;-76
2023/06/20 13:19:37;;;;;;;2.30;0.60;;;;;;;;;;5281668;28;20028;-77
2023/06/20 13:22:10;;;;;;;1.25;0.68;;;;;;;;;;5282435;28;20025;-77
2023/06/20 13:24:42;;;;;;;1.30;0.50;;;;;;;;;;5282302;28;20012;-77
2023/06/20 13:27:13;;;;;;;1.27;0.57;;;;;;;;;;5281668;28;20021;-77
2023/06/20 13:29:44;;;;;;;1.07;0.50;;;;;;;;;;5282087;28;20036;-77
2023/06/20 13:32:16;;;;;;;1.33;0.63;;;;;;;;;;5281786;28;20289;-78
2023/06/20 13:34:47;;;;;;;1.20;0.55;;;;;;;;;;5281502;28;20267;-78
2023/06/20 13:37:18;;;;;;;1.57;0.60;;;;;;;;;;5282305;28;20035;-77
2023/06/20 13:39:50;;;;;;;1.83;0.60;;;;;;;;;;5280560;28;20047;-77
2023/06/20 13:42:21;;;;;;;1.47;0.60;;;;;;;;;;5281973;28;20479;-77
2023/06/20 13:44:52;;;;;;;1.35;0.60;;;;;;;;;;5281631;28;20485;-77
2023/06/20 13:47:23;;;;;;;1.33;0.50;;;;;;;;;;5280734;28;20083;-77
2023/06/20 13:49:55;;;;;;;1.05;0.70;;;;;;;;;;5281404;28;20107;-75
2023/06/20 13:52:26;;;;;;;1.27;0.60;;;;;;;;;;5282016;28;20069;-77
2023/06/20 13:54:57;;;;;;;1.30;0.60;;;;;;;;;;5281337;28;20021;-78
2023/06/20 13:57:28;;;;;;;1.10;0.60;;;;;;;;;;5281356;28;20016;-78
2023/06/20 14:00:00;;;;;;;2.80;0.60;;;;;;;;;;5281131;28;20401;-76
2023/06/20 14:02:33;;;;;;;2.63;0.60;;;;;;;;;;5279497;28;20267;-77
2023/06/20 14:05:04;;;;;;;3.08;0.68;;;;;;;;;;5281761;28;20096;-78
2023/06/20 14:07:35;;;;;;;2.15;0.60;;;;;;;;;;5280492;28;20091;-78
2023/06/20 14:10:07;;;;;;;1.42;0.60;;;;;;;;;;5281847;28;20020;-78
2023/06/20 14:12:38;;;;;;;3.45;0.70;;;;;;;;;;5281458;28;20371;-78
2023/06/20 14:15:09;;;;;;;2.63;0.70;;;;;;;;;;5280763;28;20032;-78
2023/06/20 14:17:40;;;;;;;4.68;0.90;;;;;;;;;;5281352;28;20021;-78
2023/06/20 14:20:11;;;;;;;3.93;0.70;;;;;;;;;;5282009;28;20032;-78
2023/06/20 14:22:43;;;;;;;2.77;0.70;;;;;;;;;;5280602;28;20021;-78
2023/06/20 14:25:14;;;;;;;2.00;0.73;;;;;;;;;;5281944;28;20035;-78
2023/06/20 14:27:47;;;;;;;2.22;0.80;;;;;;;;;;5281124;28;20015;-78
2023/06/20 14:30:18;;;;;;;3.42;0.75;;;;;;;;;;5281459;28;20459;-78
2023/06/20 14:32:50;;;;;;;1.47;0.77;;;;;;;;;;5281363;28;20027;-78
2023/06/20 14:35:21;;;;;;;1.52;0.70;;;;;;;;;;5281614;28;20051;-78
2023/06/20 14:37:52;;;;;;;1.70;0.70;;;;;;;;;;5280535;28;20545;-78
2023/06/20 14:40:23;;;;;;;3.00;0.80;;;;;;;;;;5281333;28;20119;-74
2023/06/20 14:42:55;;;;;;;1.20;0.70;;;;;;;;;;5280920;28;20023;-73
2023/06/20 14:45:26;;;;;;;2.10;0.88;;;;;;;;;;5281493;28;20048;-73
2023/06/20 14:47:57;;;;;;;2.70;0.80;;;;;;;;;;5281104;28;20085;-72
2023/06/20 14:50:28;;;;;;;2.27;0.80;;;;;;;;;;5280174;28;20033;-71
2023/06/20 14:53:00;;;;;;;2.87;0.90;;;;;;;;;;5281438;28;20531;-73
2023/06/20 14:55:31;;;;;;;4.97;0.80;;;;;;;;;;5281256;28;20024;-71
2023/06/20 14:58:02;;;;;;;5.90;0.60;;;;;;;;;;5280812;28;20021;-71
2023/06/20 15:00:33;;;;;;;9.88;0.80;;;;;;;;;;5281118;28;20274;-72
2023/06/20 15:03:05;;;;;;;6.13;0.60;;;;;;;;;;5280884;28;20059;-73
2023/06/20 15:05:36;;;;;;;3.88;0.50;;;;;;;;;;5280359;28;20498;-73
2023/06/20 15:08:08;;;;;;;6.80;0.70;;;;;;;;;;5281011;28;20029;-73